sensor_id;sensor_type;location;lat;lon;timestamp;P1;durP1;ratioP1;P2;durP2;ratioP2
4375;SDS011;2202;50.866;12.750;2023-03-25T00:02:20;16.20;;;6.80;;
4375;SDS011;2202;50.866;12.750;2023-03-25T00:04:48;15.90;;;6.13;;
4375;SDS011;2202;50.866;12.750;2023-03-25T00:07:16;10.17;;;6.30;;
4375;SDS011;2202;50.866;12.750;2023-03-25T00:09:45;9.67;;;6.13;;
4375;SDS011;2202;50.866;12.750;2023-03-25T00:12:13;12.20;;;6.50;;
4375;SDS011;2202;50.866;12.750;2023-03-25T00:14:41;10.33;;;6.70;;
4375;SDS011;2202;50.866;12.750;2023-03-25T00:17:08;8.10;;;6.07;;
4375;SDS011;2202;50.866;12.750;2023-03-25T00:19:37;16.37;;;7.33;;
4375;SDS011;2202;50.866;12.750;2023-03-25T00:22:05;10.33;;;6.77;;
4375;SDS011;2202;50.866;12.750;2023-03-25T00:24:32;14.57;;;5.90;;
4375;SDS011;2202;50.866;12.750;2023-03-25T00:27:01;10.07;;;6.87;;
4375;SDS011;2202;50.866;12.750;2023-03-25T00:29:28;10.50;;;5.83;;
4375;SDS011;2202;50.866;12.750;2023-03-25T00:31:55;11.27;;;7.20;;
4375;SDS011;2202;50.866;12.750;2023-03-25T00:34:22;11.40;;;7.03;;
4375;SDS011;2202;50.866;12.750;2023-03-25T00:36:48;16.13;;;7.20;;
4375;SDS011;2202;50.866;12.750;2023-03-25T00:39:15;13.03;;;7.77;;
4375;SDS011;2202;50.866;12.750;2023-03-25T00:41:42;10.43;;;6.47;;
4375;SDS011;2202;50.866;12.750;2023-03-25T00:44:10;8.70;;;6.43;;
4375;SDS011;2202;50.866;12.750;2023-03-25T00:46:38;17.57;;;8.47;;
4375;SDS011;2202;50.866;12.750;2023-03-25T00:49:05;13.37;;;7.23;;
4375;SDS011;2202;50.866;12.750;2023-03-25T00:51:31;12.00;;;7.03;;
4375;SDS011;2202;50.866;12.750;2023-03-25T00:53:58;10.20;;;7.00;;
4375;SDS011;2202;50.866;12.750;2023-03-25T00:56:26;10.67;;;7.40;;
4375;SDS011;2202;50.866;12.750;2023-03-25T00:58:54;9.80;;;6.10;;
4375;SDS011;2202;50.866;12.750;2023-03-25T01:01:23;11.70;;;7.17;;
4375;SDS011;2202;50.866;12.750;2023-03-25T01:03:52;11.20;;;6.30;;
4375;SDS011;2202;50.866;12.750;2023-03-25T01:06:23;14.80;;;6.67;;
4375;SDS011;2202;50.866;12.750;2023-03-25T01:08:54;13.47;;;6.30;;
4375;SDS011;2202;50.866;12.750;2023-03-25T01:11:22;18.23;;;6.73;;
4375;SDS011;2202;50.866;12.750;2023-03-25T01:13:51;11.30;;;6.77;;
4375;SDS011;2202;50.866;12.750;2023-03-25T01:16:19;9.57;;;6.53;;
4375;SDS011;2202;50.866;12.750;2023-03-25T01:18:47;9.20;;;5.87;;
4375;SDS011;2202;50.866;12.750;2023-03-25T01:21:14;8.30;;;6.50;;
4375;SDS011;2202;50.866;12.750;2023-03-25T01:23:41;10.10;;;6.47;;
4375;SDS011;2202;50.866;12.750;2023-03-25T01:26:08;8.20;;;6.13;;
4375;SDS011;2202;50.866;12.750;2023-03-25T01:28:37;9.57;;;6.10;;
4375;SDS011;2202;50.866;12.750;2023-03-25T01:31:04;10.77;;;6.43;;
4375;SDS011;2202;50.866;12.750;2023-03-25T01:33:32;14.63;;;7.50;;
4375;SDS011;2202;50.866;12.750;2023-03-25T01:36:01;12.63;;;7.07;;
4375;SDS011;2202;50.866;12.750;2023-03-25T01:38:33;7.83;;;5.60;;
4375;SDS011;2202;50.866;12.750;2023-03-25T01:41:00;10.40;;;6.30;;
4375;SDS011;2202;50.866;12.750;2023-03-25T01:43:27;14.40;;;6.87;;
4375;SDS011;2202;50.866;12.750;2023-03-25T01:45:54;8.73;;;6.00;;
4375;SDS011;2202;50.866;12.750;2023-03-25T01:48:22;16.47;;;6.87;;
4375;SDS011;2202;50.866;12.750;2023-03-25T01:50:53;11.00;;;6.83;;
4375;SDS011;2202;50.866;12.750;2023-03-25T01:53:26;9.47;;;5.67;;
4375;SDS011;2202;50.866;12.750;2023-03-25T01:55:55;8.20;;;5.47;;
4375;SDS011;2202;50.866;12.750;2023-03-25T01:58:22;11.13;;;6.10;;
4375;SDS011;2202;50.866;12.750;2023-03-25T02:00:51;8.37;;;5.67;;
4375;SDS011;2202;50.866;12.750;2023-03-25T02:03:19;8.17;;;4.33;;
4375;SDS011;2202;50.866;12.750;2023-03-25T02:05:50;6.30;;;4.10;;
4375;SDS011;2202;50.866;12.750;2023-03-25T02:08:21;9.30;;;5.20;;
4375;SDS011;2202;50.866;12.750;2023-03-25T02:10:50;6.47;;;3.90;;
4375;SDS011;2202;50.866;12.750;2023-03-25T02:13:18;6.77;;;4.30;;
4375;SDS011;2202;50.866;12.750;2023-03-25T02:15:50;4.77;;;3.10;;
4375;SDS011;2202;50.866;12.750;2023-03-25T02:18:41;3.80;;;2.57;;
4375;SDS011;2202;50.866;12.750;2023-03-25T02:21:27;6.17;;;2.97;;
4375;SDS011;2202;50.866;12.750;2023-03-25T02:24:21;6.37;;;3.33;;
4375;SDS011;2202;50.866;12.750;2023-03-25T02:27:23;6.80;;;3.73;;
4375;SDS011;2202;50.866;12.750;2023-03-25T02:33:15;7.97;;;2.30;;
4375;SDS011;2202;50.866;12.750;2023-03-25T02:36:05;3.40;;;1.97;;
4375;SDS011;2202;50.866;12.750;2023-03-25T02:39:00;4.87;;;2.40;;
4375;SDS011;2202;50.866;12.750;2023-03-25T02:41:32;3.30;;;1.80;;
4375;SDS011;2202;50.866;12.750;2023-03-25T02:44:06;4.27;;;2.10;;
4375;SDS011;2202;50.866;12.750;2023-03-25T02:46:39;7.83;;;2.10;;
4375;SDS011;2202;50.866;12.750;2023-03-25T02:49:10;5.40;;;2.20;;
4375;SDS011;2202;50.866;12.750;2023-03-25T02:51:42;6.30;;;2.50;;
4375;SDS011;2202;50.866;12.750;2023-03-25T02:54:15;3.70;;;1.70;;
4375;SDS011;2202;50.866;12.750;2023-03-25T02:56:44;4.27;;;2.30;;
4375;SDS011;2202;50.866;12.750;2023-03-25T02:59:13;2.90;;;1.47;;
4375;SDS011;2202;50.866;12.750;2023-03-25T03:01:41;4.70;;;2.63;;
4375;SDS011;2202;50.866;12.750;2023-03-25T03:04:09;4.10;;;1.87;;
4375;SDS011;2202;50.866;12.750;2023-03-25T03:06:37;3.13;;;1.60;;
4375;SDS011;2202;50.866;12.750;2023-03-25T03:11:58;4.50;;;2.27;;
4375;SDS011;2202;50.866;12.750;2023-03-25T03:14:42;3.97;;;2.00;;
4375;SDS011;2202;50.866;12.750;2023-03-25T03:17:23;4.73;;;2.00;;
4375;SDS011;2202;50.866;12.750;2023-03-25T03:19:57;4.90;;;2.47;;
4375;SDS011;2202;50.866;12.750;2023-03-25T03:22:37;4.00;;;2.30;;
4375;SDS011;2202;50.866;12.750;2023-03-25T03:25:11;6.50;;;2.23;;
4375;SDS011;2202;50.866;12.750;2023-03-25T03:27:46;6.43;;;2.13;;
4375;SDS011;2202;50.866;12.750;2023-03-25T03:30:19;3.30;;;2.20;;
4375;SDS011;2202;50.866;12.750;2023-03-25T03:32:54;4.43;;;2.43;;
4375;SDS011;2202;50.866;12.750;2023-03-25T03:35:27;6.10;;;1.93;;
4375;SDS011;2202;50.866;12.750;2023-03-25T03:37:59;3.93;;;1.67;;
4375;SDS011;2202;50.866;12.750;2023-03-25T03:40:31;5.17;;;1.90;;
4375;SDS011;2202;50.866;12.750;2023-03-25T03:43:02;3.33;;;1.50;;
4375;SDS011;2202;50.866;12.750;2023-03-25T03:45:33;3.30;;;2.10;;
4375;SDS011;2202;50.866;12.750;2023-03-25T03:48:04;8.00;;;2.37;;
4375;SDS011;2202;50.866;12.750;2023-03-25T03:50:37;3.40;;;1.60;;
4375;SDS011;2202;50.866;12.750;2023-03-25T03:53:10;3.07;;;1.67;;
4375;SDS011;2202;50.866;12.750;2023-03-25T03:55:42;3.37;;;1.63;;
4375;SDS011;2202;50.866;12.750;2023-03-25T03:58:13;3.23;;;1.50;;
4375;SDS011;2202;50.866;12.750;2023-03-25T04:00:47;2.50;;;1.57;;
4375;SDS011;2202;50.866;12.750;2023-03-25T04:03:18;2.20;;;1.30;;
4375;SDS011;2202;50.866;12.750;2023-03-25T04:05:50;3.63;;;1.60;;
4375;SDS011;2202;50.866;12.750;2023-03-25T04:08:21;4.00;;;1.20;;
4375;SDS011;2202;50.866;12.750;2023-03-25T04:10:56;2.20;;;1.20;;
4375;SDS011;2202;50.866;12.750;2023-03-25T04:13:29;5.83;;;1.20;;
4375;SDS011;2202;50.866;12.750;2023-03-25T04:15:58;2.33;;;1.40;;
4375;SDS011;2202;50.866;12.750;2023-03-25T04:18:26;5.70;;;1.37;;
4375;SDS011;2202;50.866;12.750;2023-03-25T04:20:53;4.20;;;1.20;;
4375;SDS011;2202;50.866;12.750;2023-03-25T04:23:20;2.60;;;1.33;;
4375;SDS011;2202;50.866;12.750;2023-03-25T04:25:47;3.73;;;2.10;;
4375;SDS011;2202;50.866;12.750;2023-03-25T04:28:18;3.73;;;1.50;;
4375;SDS011;2202;50.866;12.750;2023-03-25T04:30:46;2.87;;;1.20;;
4375;SDS011;2202;50.866;12.750;2023-03-25T04:33:14;1.80;;;0.93;;
4375;SDS011;2202;50.866;12.750;2023-03-25T04:35:41;1.67;;;0.90;;
4375;SDS011;2202;50.866;12.750;2023-03-25T04:38:08;4.40;;;1.00;;
4375;SDS011;2202;50.866;12.750;2023-03-25T04:40:35;2.60;;;1.00;;
4375;SDS011;2202;50.866;12.750;2023-03-25T04:43:04;1.70;;;1.13;;
4375;SDS011;2202;50.866;12.750;2023-03-25T04:45:32;4.60;;;1.00;;
4375;SDS011;2202;50.866;12.750;2023-03-25T04:48:00;1.53;;;1.00;;
4375;SDS011;2202;50.866;12.750;2023-03-25T04:50:30;11.50;;;1.10;;
4375;SDS011;2202;50.866;12.750;2023-03-25T04:52:58;5.83;;;1.30;;
4375;SDS011;2202;50.866;12.750;2023-03-25T04:55:26;2.70;;;0.90;;
4375;SDS011;2202;50.866;12.750;2023-03-25T04:57:54;2.23;;;0.93;;
4375;SDS011;2202;50.866;12.750;2023-03-25T05:00:21;3.43;;;1.33;;
4375;SDS011;2202;50.866;12.750;2023-03-25T05:02:51;2.23;;;1.13;;
4375;SDS011;2202;50.866;12.750;2023-03-25T05:05:20;2.93;;;1.93;;
4375;SDS011;2202;50.866;12.750;2023-03-25T05:07:49;2.30;;;1.10;;
4375;SDS011;2202;50.866;12.750;2023-03-25T05:10:17;2.20;;;1.13;;
4375;SDS011;2202;50.866;12.750;2023-03-25T05:12:45;1.80;;;0.97;;
4375;SDS011;2202;50.866;12.750;2023-03-25T05:15:12;2.00;;;0.90;;
4375;SDS011;2202;50.866;12.750;2023-03-25T05:17:41;3.40;;;1.30;;
4375;SDS011;2202;50.866;12.750;2023-03-25T05:20:11;2.00;;;0.80;;
4375;SDS011;2202;50.866;12.750;2023-03-25T05:22:38;3.03;;;1.20;;
4375;SDS011;2202;50.866;12.750;2023-03-25T05:25:06;3.40;;;1.50;;
4375;SDS011;2202;50.866;12.750;2023-03-25T05:27:34;2.23;;;1.20;;
4375;SDS011;2202;50.866;12.750;2023-03-25T05:30:02;3.70;;;1.20;;
4375;SDS011;2202;50.866;12.750;2023-03-25T05:32:30;2.97;;;1.40;;
4375;SDS011;2202;50.866;12.750;2023-03-25T05:34:57;3.40;;;1.17;;
4375;SDS011;2202;50.866;12.750;2023-03-25T05:37:26;2.67;;;1.50;;
4375;SDS011;2202;50.866;12.750;2023-03-25T05:39:53;2.67;;;1.30;;
4375;SDS011;2202;50.866;12.750;2023-03-25T05:42:20;2.07;;;1.07;;
4375;SDS011;2202;50.866;12.750;2023-03-25T05:44:47;4.10;;;1.33;;
4375;SDS011;2202;50.866;12.750;2023-03-25T05:47:16;2.50;;;1.30;;
4375;SDS011;2202;50.866;12.750;2023-03-25T05:49:44;2.30;;;1.50;;
4375;SDS011;2202;50.866;12.750;2023-03-25T05:52:11;3.47;;;1.40;;
4375;SDS011;2202;50.866;12.750;2023-03-25T05:54:39;2.73;;;1.40;;
4375;SDS011;2202;50.866;12.750;2023-03-25T05:57:06;2.80;;;1.60;;
4375;SDS011;2202;50.866;12.750;2023-03-25T05:59:33;3.47;;;2.13;;
4375;SDS011;2202;50.866;12.750;2023-03-25T06:02:02;5.40;;;1.63;;
4375;SDS011;2202;50.866;12.750;2023-03-25T06:04:31;3.30;;;1.37;;
4375;SDS011;2202;50.866;12.750;2023-03-25T06:07:02;4.60;;;2.10;;
4375;SDS011;2202;50.866;12.750;2023-03-25T06:09:33;5.13;;;1.30;;
4375;SDS011;2202;50.866;12.750;2023-03-25T06:12:01;2.23;;;1.40;;
4375;SDS011;2202;50.866;12.750;2023-03-25T06:14:28;2.77;;;1.30;;
4375;SDS011;2202;50.866;12.750;2023-03-25T06:16:55;3.60;;;1.77;;
4375;SDS011;2202;50.866;12.750;2023-03-25T06:19:22;3.70;;;1.47;;
4375;SDS011;2202;50.866;12.750;2023-03-25T06:21:50;2.37;;;1.20;;
4375;SDS011;2202;50.866;12.750;2023-03-25T06:24:18;3.43;;;1.60;;
4375;SDS011;2202;50.866;12.750;2023-03-25T06:26:46;3.40;;;1.30;;
4375;SDS011;2202;50.866;12.750;2023-03-25T06:29:14;1.60;;;1.03;;
4375;SDS011;2202;50.866;12.750;2023-03-25T06:31:41;2.93;;;1.47;;
4375;SDS011;2202;50.866;12.750;2023-03-25T06:34:07;3.63;;;1.47;;
4375;SDS011;2202;50.866;12.750;2023-03-25T06:36:34;3.73;;;1.57;;
4375;SDS011;2202;50.866;12.750;2023-03-25T06:39:01;4.63;;;1.50;;
4375;SDS011;2202;50.866;12.750;2023-03-25T06:41:30;6.33;;;1.53;;
4375;SDS011;2202;50.866;12.750;2023-03-25T06:43:59;3.97;;;1.30;;
4375;SDS011;2202;50.866;12.750;2023-03-25T06:46:28;3.13;;;1.93;;
4375;SDS011;2202;50.866;12.750;2023-03-25T06:48:55;3.17;;;1.77;;
4375;SDS011;2202;50.866;12.750;2023-03-25T06:51:22;2.70;;;1.63;;
4375;SDS011;2202;50.866;12.750;2023-03-25T06:53:49;6.17;;;1.50;;
4375;SDS011;2202;50.866;12.750;2023-03-25T06:56:15;4.10;;;1.33;;
4375;SDS011;2202;50.866;12.750;2023-03-25T06:58:42;3.17;;;1.53;;
4375;SDS011;2202;50.866;12.750;2023-03-25T07:01:09;2.50;;;1.60;;
4375;SDS011;2202;50.866;12.750;2023-03-25T07:03:37;4.10;;;1.80;;
4375;SDS011;2202;50.866;12.750;2023-03-25T07:06:05;4.50;;;1.73;;
4375;SDS011;2202;50.866;12.750;2023-03-25T07:08:32;4.63;;;1.70;;
4375;SDS011;2202;50.866;12.750;2023-03-25T07:11:00;2.97;;;1.70;;
4375;SDS011;2202;50.866;12.750;2023-03-25T07:13:27;2.27;;;1.47;;
4375;SDS011;2202;50.866;12.750;2023-03-25T07:15:55;4.53;;;1.77;;
4375;SDS011;2202;50.866;12.750;2023-03-25T07:18:22;4.13;;;1.67;;
4375;SDS011;2202;50.866;12.750;2023-03-25T07:20:50;2.00;;;1.57;;
4375;SDS011;2202;50.866;12.750;2023-03-25T07:23:17;3.40;;;1.73;;
4375;SDS011;2202;50.866;12.750;2023-03-25T07:25:44;3.60;;;1.50;;
4375;SDS011;2202;50.866;12.750;2023-03-25T07:28:11;2.33;;;1.30;;
4375;SDS011;2202;50.866;12.750;2023-03-25T07:30:38;3.43;;;1.50;;
4375;SDS011;2202;50.866;12.750;2023-03-25T07:33:05;2.00;;;1.40;;
4375;SDS011;2202;50.866;12.750;2023-03-25T07:35:32;2.33;;;1.60;;
4375;SDS011;2202;50.866;12.750;2023-03-25T07:38:00;2.67;;;1.33;;
4375;SDS011;2202;50.866;12.750;2023-03-25T07:40:28;2.30;;;1.50;;
4375;SDS011;2202;50.866;12.750;2023-03-25T07:42:55;3.07;;;1.30;;
4375;SDS011;2202;50.866;12.750;2023-03-25T07:45:21;3.13;;;1.63;;
4375;SDS011;2202;50.866;12.750;2023-03-25T07:47:48;3.23;;;1.37;;
4375;SDS011;2202;50.866;12.750;2023-03-25T07:50:15;5.20;;;2.77;;
4375;SDS011;2202;50.866;12.750;2023-03-25T07:52:42;4.60;;;1.93;;
4375;SDS011;2202;50.866;12.750;2023-03-25T07:55:11;3.50;;;2.00;;
4375;SDS011;2202;50.866;12.750;2023-03-25T07:57:38;4.03;;;1.30;;
4375;SDS011;2202;50.866;12.750;2023-03-25T08:00:06;3.07;;;1.60;;
4375;SDS011;2202;50.866;12.750;2023-03-25T08:02:34;3.30;;;1.50;;
4375;SDS011;2202;50.866;12.750;2023-03-25T08:05:01;4.50;;;1.93;;
4375;SDS011;2202;50.866;12.750;2023-03-25T08:07:29;6.90;;;1.80;;
4375;SDS011;2202;50.866;12.750;2023-03-25T08:09:56;4.10;;;1.80;;
4375;SDS011;2202;50.866;12.750;2023-03-25T08:12:25;4.80;;;1.90;;
4375;SDS011;2202;50.866;12.750;2023-03-25T08:14:51;3.70;;;2.33;;
4375;SDS011;2202;50.866;12.750;2023-03-25T08:17:18;4.13;;;1.80;;
4375;SDS011;2202;50.866;12.750;2023-03-25T08:19:45;5.50;;;1.97;;
4375;SDS011;2202;50.866;12.750;2023-03-25T08:22:12;3.73;;;1.80;;
4375;SDS011;2202;50.866;12.750;2023-03-25T08:24:39;4.20;;;2.20;;
4375;SDS011;2202;50.866;12.750;2023-03-25T08:27:06;8.97;;;2.07;;
4375;SDS011;2202;50.866;12.750;2023-03-25T08:29:34;3.90;;;1.90;;
4375;SDS011;2202;50.866;12.750;2023-03-25T08:32:02;5.00;;;2.20;;
4375;SDS011;2202;50.866;12.750;2023-03-25T08:34:29;4.43;;;2.60;;
4375;SDS011;2202;50.866;12.750;2023-03-25T08:37:03;5.77;;;2.20;;
4375;SDS011;2202;50.866;12.750;2023-03-25T08:39:31;7.10;;;2.47;;
4375;SDS011;2202;50.866;12.750;2023-03-25T08:42:03;3.00;;;1.73;;
4375;SDS011;2202;50.866;12.750;2023-03-25T08:44:31;3.23;;;1.77;;
4375;SDS011;2202;50.866;12.750;2023-03-25T08:46:59;3.67;;;1.70;;
4375;SDS011;2202;50.866;12.750;2023-03-25T08:49:26;3.30;;;1.70;;
4375;SDS011;2202;50.866;12.750;2023-03-25T08:51:53;3.37;;;1.83;;
4375;SDS011;2202;50.866;12.750;2023-03-25T08:54:21;5.77;;;1.90;;
4375;SDS011;2202;50.866;12.750;2023-03-25T08:56:48;3.67;;;1.60;;
4375;SDS011;2202;50.866;12.750;2023-03-25T08:59:15;3.13;;;1.67;;
4375;SDS011;2202;50.866;12.750;2023-03-25T09:01:42;5.50;;;1.90;;
4375;SDS011;2202;50.866;12.750;2023-03-25T09:04:11;2.47;;;1.67;;
4375;SDS011;2202;50.866;12.750;2023-03-25T09:06:38;4.40;;;1.90;;
4375;SDS011;2202;50.866;12.750;2023-03-25T09:09:05;3.90;;;1.80;;
4375;SDS011;2202;50.866;12.750;2023-03-25T09:11:34;2.90;;;1.77;;
4375;SDS011;2202;50.866;12.750;2023-03-25T09:14:01;2.07;;;1.37;;
4375;SDS011;2202;50.866;12.750;2023-03-25T09:16:29;4.00;;;1.33;;
4375;SDS011;2202;50.866;12.750;2023-03-25T09:18:56;2.37;;;1.33;;
4375;SDS011;2202;50.866;12.750;2023-03-25T09:21:24;3.50;;;1.93;;
4375;SDS011;2202;50.866;12.750;2023-03-25T09:23:53;2.27;;;1.30;;
4375;SDS011;2202;50.866;12.750;2023-03-25T09:26:20;4.37;;;1.33;;
4375;SDS011;2202;50.866;12.750;2023-03-25T09:28:47;3.40;;;1.20;;
4375;SDS011;2202;50.866;12.750;2023-03-25T09:31:13;2.33;;;1.27;;
4375;SDS011;2202;50.866;12.750;2023-03-25T09:33:40;3.77;;;1.20;;
4375;SDS011;2202;50.866;12.750;2023-03-25T09:36:07;6.53;;;1.30;;
4375;SDS011;2202;50.866;12.750;2023-03-25T09:38:37;1.63;;;1.20;;
4375;SDS011;2202;50.866;12.750;2023-03-25T09:41:11;1.70;;;1.27;;
4375;SDS011;2202;50.866;12.750;2023-03-25T09:43:50;1.50;;;1.00;;
4375;SDS011;2202;50.866;12.750;2023-03-25T09:46:25;1.80;;;1.23;;
4375;SDS011;2202;50.866;12.750;2023-03-25T09:48:53;2.97;;;1.27;;
4375;SDS011;2202;50.866;12.750;2023-03-25T09:51:21;2.00;;;1.53;;
4375;SDS011;2202;50.866;12.750;2023-03-25T09:53:54;2.13;;;1.03;;
4375;SDS011;2202;50.866;12.750;2023-03-25T09:56:25;1.63;;;1.47;;
4375;SDS011;2202;50.866;12.750;2023-03-25T09:58:54;1.30;;;1.10;;
4375;SDS011;2202;50.866;12.750;2023-03-25T10:01:28;1.50;;;1.27;;
4375;SDS011;2202;50.866;12.750;2023-03-25T10:04:13;1.80;;;1.53;;
4375;SDS011;2202;50.866;12.750;2023-03-25T10:07:00;3.13;;;1.40;;
4375;SDS011;2202;50.866;12.750;2023-03-25T10:09:43;1.50;;;1.13;;
4375;SDS011;2202;50.866;12.750;2023-03-25T10:12:21;3.20;;;1.33;;
4375;SDS011;2202;50.866;12.750;2023-03-25T10:14:57;1.93;;;1.00;;
4375;SDS011;2202;50.866;12.750;2023-03-25T10:17:34;5.07;;;1.20;;
4375;SDS011;2202;50.866;12.750;2023-03-25T10:20:09;1.30;;;1.00;;
4375;SDS011;2202;50.866;12.750;2023-03-25T10:22:41;2.90;;;1.20;;
4375;SDS011;2202;50.866;12.750;2023-03-25T10:25:23;2.03;;;1.00;;
4375;SDS011;2202;50.866;12.750;2023-03-25T10:27:52;2.37;;;1.37;;
4375;SDS011;2202;50.866;12.750;2023-03-25T10:30:22;1.83;;;1.23;;
4375;SDS011;2202;50.866;12.750;2023-03-25T10:32:52;2.10;;;1.20;;
4375;SDS011;2202;50.866;12.750;2023-03-25T10:35:22;1.40;;;1.00;;
4375;SDS011;2202;50.866;12.750;2023-03-25T10:37:53;1.83;;;1.17;;
4375;SDS011;2202;50.866;12.750;2023-03-25T10:40:25;2.27;;;1.50;;
4375;SDS011;2202;50.866;12.750;2023-03-25T10:43:02;2.50;;;1.00;;
4375;SDS011;2202;50.866;12.750;2023-03-25T10:45:38;1.40;;;1.10;;
4375;SDS011;2202;50.866;12.750;2023-03-25T10:48:10;2.73;;;1.20;;
4375;SDS011;2202;50.866;12.750;2023-03-25T10:50:40;1.77;;;0.90;;
4375;SDS011;2202;50.866;12.750;2023-03-25T10:53:10;1.40;;;0.90;;
4375;SDS011;2202;50.866;12.750;2023-03-25T10:55:46;3.83;;;1.30;;
4375;SDS011;2202;50.866;12.750;2023-03-25T10:58:17;1.80;;;1.00;;
4375;SDS011;2202;50.866;12.750;2023-03-25T11:00:45;2.80;;;1.40;;
4375;SDS011;2202;50.866;12.750;2023-03-25T11:03:14;1.20;;;0.90;;
4375;SDS011;2202;50.866;12.750;2023-03-25T11:05:46;1.97;;;0.90;;
4375;SDS011;2202;50.866;12.750;2023-03-25T11:08:14;1.40;;;1.10;;
4375;SDS011;2202;50.866;12.750;2023-03-25T11:10:47;3.33;;;1.37;;
4375;SDS011;2202;50.866;12.750;2023-03-25T11:13:15;2.00;;;1.07;;
4375;SDS011;2202;50.866;12.750;2023-03-25T11:15:46;3.77;;;1.53;;
4375;SDS011;2202;50.866;12.750;2023-03-25T11:18:15;2.77;;;1.50;;
4375;SDS011;2202;50.866;12.750;2023-03-25T11:20:47;2.47;;;1.23;;
4375;SDS011;2202;50.866;12.750;2023-03-25T11:23:19;3.57;;;1.10;;
4375;SDS011;2202;50.866;12.750;2023-03-25T11:25:52;2.87;;;1.30;;
4375;SDS011;2202;50.866;12.750;2023-03-25T11:28:23;1.43;;;1.20;;
4375;SDS011;2202;50.866;12.750;2023-03-25T11:31:05;1.50;;;0.90;;
4375;SDS011;2202;50.866;12.750;2023-03-25T11:33:40;2.43;;;1.03;;
4375;SDS011;2202;50.866;12.750;2023-03-25T11:38:57;1.40;;;1.13;;
4375;SDS011;2202;50.866;12.750;2023-03-25T11:41:30;1.20;;;0.83;;
4375;SDS011;2202;50.866;12.750;2023-03-25T11:43:58;2.70;;;1.20;;
4375;SDS011;2202;50.866;12.750;2023-03-25T11:46:26;1.60;;;0.93;;
4375;SDS011;2202;50.866;12.750;2023-03-25T11:48:53;3.17;;;1.30;;
4375;SDS011;2202;50.866;12.750;2023-03-25T11:51:21;2.70;;;1.10;;
4375;SDS011;2202;50.866;12.750;2023-03-25T11:53:53;1.70;;;1.00;;
4375;SDS011;2202;50.866;12.750;2023-03-25T11:56:23;2.10;;;0.90;;
4375;SDS011;2202;50.866;12.750;2023-03-25T11:58:57;3.20;;;1.20;;
4375;SDS011;2202;50.866;12.750;2023-03-25T12:01:27;1.37;;;1.07;;
4375;SDS011;2202;50.866;12.750;2023-03-25T12:04:04;2.80;;;1.10;;
4375;SDS011;2202;50.866;12.750;2023-03-25T12:06:33;2.33;;;0.97;;
4375;SDS011;2202;50.866;12.750;2023-03-25T12:09:02;2.70;;;1.40;;
4375;SDS011;2202;50.866;12.750;2023-03-25T12:11:36;2.90;;;1.13;;
4375;SDS011;2202;50.866;12.750;2023-03-25T12:14:17;2.07;;;1.33;;
4375;SDS011;2202;50.866;12.750;2023-03-25T12:16:53;2.57;;;1.50;;
4375;SDS011;2202;50.866;12.750;2023-03-25T12:19:26;1.90;;;1.10;;
4375;SDS011;2202;50.866;12.750;2023-03-25T12:22:05;1.87;;;1.70;;
4375;SDS011;2202;50.866;12.750;2023-03-25T12:24:45;2.00;;;1.43;;
4375;SDS011;2202;50.866;12.750;2023-03-25T12:27:35;2.70;;;1.30;;
4375;SDS011;2202;50.866;12.750;2023-03-25T12:30:15;2.40;;;0.93;;
4375;SDS011;2202;50.866;12.750;2023-03-25T12:32:56;5.00;;;1.60;;
4375;SDS011;2202;50.866;12.750;2023-03-25T12:35:32;1.90;;;1.37;;
4375;SDS011;2202;50.866;12.750;2023-03-25T12:38:16;2.00;;;1.43;;
4375;SDS011;2202;50.866;12.750;2023-03-25T12:40:59;2.33;;;1.70;;
4375;SDS011;2202;50.866;12.750;2023-03-25T12:43:43;2.20;;;1.30;;
4375;SDS011;2202;50.866;12.750;2023-03-25T12:46:27;1.80;;;1.60;;
4375;SDS011;2202;50.866;12.750;2023-03-25T12:49:11;3.10;;;1.30;;
4375;SDS011;2202;50.866;12.750;2023-03-25T12:51:49;2.60;;;1.50;;
4375;SDS011;2202;50.866;12.750;2023-03-25T12:54:28;4.23;;;1.60;;
4375;SDS011;2202;50.866;12.750;2023-03-25T12:57:08;3.00;;;1.97;;
4375;SDS011;2202;50.866;12.750;2023-03-25T12:59:54;2.83;;;2.07;;
4375;SDS011;2202;50.866;12.750;2023-03-25T13:02:50;4.33;;;1.60;;
4375;SDS011;2202;50.866;12.750;2023-03-25T13:05:41;2.03;;;1.40;;
4375;SDS011;2202;50.866;12.750;2023-03-25T13:08:16;3.97;;;1.83;;
4375;SDS011;2202;50.866;12.750;2023-03-25T13:10:47;3.13;;;1.40;;
4375;SDS011;2202;50.866;12.750;2023-03-25T13:13:22;5.00;;;1.30;;
4375;SDS011;2202;50.866;12.750;2023-03-25T13:15:53;2.87;;;1.70;;
4375;SDS011;2202;50.866;12.750;2023-03-25T13:18:29;1.90;;;1.30;;
4375;SDS011;2202;50.866;12.750;2023-03-25T13:21:02;2.23;;;1.57;;
4375;SDS011;2202;50.866;12.750;2023-03-25T13:23:32;7.87;;;1.87;;
4375;SDS011;2202;50.866;12.750;2023-03-25T13:26:02;13.73;;;2.17;;
4375;SDS011;2202;50.866;12.750;2023-03-25T13:28:34;5.77;;;1.50;;
4375;SDS011;2202;50.866;12.750;2023-03-25T13:31:05;3.33;;;1.60;;
4375;SDS011;2202;50.866;12.750;2023-03-25T13:33:38;3.57;;;1.60;;
4375;SDS011;2202;50.866;12.750;2023-03-25T13:36:12;5.63;;;2.70;;
4375;SDS011;2202;50.866;12.750;2023-03-25T13:38:42;6.50;;;2.00;;
4375;SDS011;2202;50.866;12.750;2023-03-25T13:41:14;3.30;;;1.73;;
4375;SDS011;2202;50.866;12.750;2023-03-25T13:43:48;3.10;;;1.40;;
4375;SDS011;2202;50.866;12.750;2023-03-25T13:46:25;3.13;;;1.10;;
4375;SDS011;2202;50.866;12.750;2023-03-25T13:49:00;1.10;;;0.67;;
4375;SDS011;2202;50.866;12.750;2023-03-25T13:51:30;1.10;;;0.70;;
4375;SDS011;2202;50.866;12.750;2023-03-25T13:53:58;2.13;;;0.80;;
4375;SDS011;2202;50.866;12.750;2023-03-25T13:56:33;2.90;;;0.70;;
4375;SDS011;2202;50.866;12.750;2023-03-25T13:59:34;1.20;;;0.80;;
4375;SDS011;2202;50.866;12.750;2023-03-25T14:11:24;1.90;;;1.10;;
4375;SDS011;2202;50.866;12.750;2023-03-25T14:13:54;1.70;;;1.33;;
4375;SDS011;2202;50.866;12.750;2023-03-25T14:16:25;1.40;;;1.00;;
4375;SDS011;2202;50.866;12.750;2023-03-25T14:18:57;1.93;;;0.90;;
4375;SDS011;2202;50.866;12.750;2023-03-25T14:21:33;2.33;;;0.77;;
4375;SDS011;2202;50.866;12.750;2023-03-25T14:24:09;5.50;;;0.90;;
4375;SDS011;2202;50.866;12.750;2023-03-25T14:26:43;3.40;;;1.00;;
4375;SDS011;2202;50.866;12.750;2023-03-25T14:29:26;1.30;;;0.80;;
4375;SDS011;2202;50.866;12.750;2023-03-25T14:32:00;2.33;;;1.87;;
4375;SDS011;2202;50.866;12.750;2023-03-25T14:34:29;1.20;;;0.90;;
4375;SDS011;2202;50.866;12.750;2023-03-25T14:37:17;1.70;;;0.93;;
4375;SDS011;2202;50.866;12.750;2023-03-25T14:39:56;2.60;;;1.00;;
4375;SDS011;2202;50.866;12.750;2023-03-25T14:45:39;2.60;;;1.10;;
4375;SDS011;2202;50.866;12.750;2023-03-25T14:48:24;1.40;;;0.90;;
4375;SDS011;2202;50.866;12.750;2023-03-25T14:53:49;3.80;;;1.33;;
4375;SDS011;2202;50.866;12.750;2023-03-25T14:56:21;4.60;;;1.30;;
4375;SDS011;2202;50.866;12.750;2023-03-25T14:58:51;3.40;;;1.23;;
4375;SDS011;2202;50.866;12.750;2023-03-25T15:01:20;1.60;;;1.13;;
4375;SDS011;2202;50.866;12.750;2023-03-25T15:04:06;5.37;;;1.10;;
4375;SDS011;2202;50.866;12.750;2023-03-25T15:06:39;1.60;;;1.17;;
4375;SDS011;2202;50.866;12.750;2023-03-25T15:09:09;1.60;;;1.50;;
4375;SDS011;2202;50.866;12.750;2023-03-25T15:11:38;2.93;;;1.00;;
4375;SDS011;2202;50.866;12.750;2023-03-25T15:14:07;3.40;;;2.33;;
4375;SDS011;2202;50.866;12.750;2023-03-25T15:16:54;2.17;;;1.50;;
4375;SDS011;2202;50.866;12.750;2023-03-25T15:19:26;4.73;;;1.83;;
4375;SDS011;2202;50.866;12.750;2023-03-25T15:22:03;2.63;;;2.10;;
4375;SDS011;2202;50.866;12.750;2023-03-25T15:24:36;3.13;;;1.57;;
4375;SDS011;2202;50.866;12.750;2023-03-25T15:27:06;2.57;;;1.00;;
4375;SDS011;2202;50.866;12.750;2023-03-25T15:29:43;4.53;;;2.80;;
4375;SDS011;2202;50.866;12.750;2023-03-25T15:32:19;4.70;;;3.80;;
4375;SDS011;2202;50.866;12.750;2023-03-25T15:35:02;29.40;;;18.00;;
4375;SDS011;2202;50.866;12.750;2023-03-25T15:37:54;5.30;;;2.47;;
4375;SDS011;2202;50.866;12.750;2023-03-25T15:40:30;2.77;;;1.30;;
4375;SDS011;2202;50.866;12.750;2023-03-25T15:46:27;4.53;;;3.90;;
4375;SDS011;2202;50.866;12.750;2023-03-25T15:49:22;3.10;;;1.27;;
4375;SDS011;2202;50.866;12.750;2023-03-25T15:52:09;1.60;;;0.93;;
4375;SDS011;2202;50.866;12.750;2023-03-25T15:54:45;2.70;;;1.57;;